sensor_id;sensor_type;location;lat;lon;timestamp;P1;durP1;ratioP1;P2;durP2;ratioP2
52033;SDS011;38045;52.988;6.536;2023-04-06T00:00:50;6.88;;;6.05;;
52033;SDS011;38045;52.988;6.536;2023-04-06T00:05:41;5.13;;;4.53;;
52033;SDS011;38045;52.988;6.536;2023-04-06T00:08:07;6.00;;;4.93;;
52033;SDS011;38045;52.988;6.536;2023-04-06T00:10:33;7.70;;;5.22;;
52033;SDS011;38045;52.988;6.536;2023-04-06T00:12:58;4.53;;;4.20;;
52033;SDS011;38045;52.988;6.536;2023-04-06T00:15:25;10.20;;;7.05;;
52033;SDS011;38045;52.988;6.536;2023-04-06T00:17:51;6.63;;;4.03;;
52033;SDS011;38045;52.988;6.536;2023-04-06T00:20:17;6.38;;;5.88;;
52033;SDS011;38045;52.988;6.536;2023-04-06T00:22:43;8.65;;;5.10;;
52033;SDS011;38045;52.988;6.536;2023-04-06T00:25:08;7.32;;;6.15;;
52033;SDS011;38045;52.988;6.536;2023-04-06T00:27:35;6.05;;;4.40;;
52033;SDS011;38045;52.988;6.536;2023-04-06T00:30:01;8.05;;;5.85;;
52033;SDS011;38045;52.988;6.536;2023-04-06T00:32:28;5.75;;;5.00;;
52033;SDS011;38045;52.988;6.536;2023-04-06T00:34:53;5.10;;;4.57;;
52033;SDS011;38045;52.988;6.536;2023-04-06T00:37:19;7.18;;;5.40;;
52033;SDS011;38045;52.988;6.536;2023-04-06T00:39:45;10.57;;;6.47;;
52033;SDS011;38045;52.988;6.536;2023-04-06T00:42:11;7.65;;;5.45;;
52033;SDS011;38045;52.988;6.536;2023-04-06T00:47:08;5.60;;;5.05;;
52033;SDS011;38045;52.988;6.536;2023-04-06T00:49:34;8.45;;;7.25;;
52033;SDS011;38045;52.988;6.536;2023-04-06T00:52:00;6.22;;;5.65;;
52033;SDS011;38045;52.988;6.536;2023-04-06T00:54:26;6.88;;;6.18;;
52033;SDS011;38045;52.988;6.536;2023-04-06T00:56:53;10.93;;;6.85;;
52033;SDS011;38045;52.988;6.536;2023-04-06T00:59:18;6.72;;;5.38;;
52033;SDS011;38045;52.988;6.536;2023-04-06T01:01:44;6.57;;;5.53;;
52033;SDS011;38045;52.988;6.536;2023-04-06T01:04:11;8.52;;;6.45;;
52033;SDS011;38045;52.988;6.536;2023-04-06T01:06:36;11.43;;;6.10;;
52033;SDS011;38045;52.988;6.536;2023-04-06T01:09:02;5.00;;;4.60;;
52033;SDS011;38045;52.988;6.536;2023-04-06T01:11:28;6.35;;;5.75;;
52033;SDS011;38045;52.988;6.536;2023-04-06T01:13:53;6.10;;;5.50;;
52033;SDS011;38045;52.988;6.536;2023-04-06T01:16:20;7.07;;;5.03;;
52033;SDS011;38045;52.988;6.536;2023-04-06T01:18:46;7.60;;;5.45;;
52033;SDS011;38045;52.988;6.536;2023-04-06T01:21:11;8.30;;;5.72;;
52033;SDS011;38045;52.988;6.536;2023-04-06T01:23:43;6.28;;;4.93;;
52033;SDS011;38045;52.988;6.536;2023-04-06T01:26:10;6.38;;;5.75;;
52033;SDS011;38045;52.988;6.536;2023-04-06T01:28:36;6.25;;;5.45;;
52033;SDS011;38045;52.988;6.536;2023-04-06T01:31:02;6.72;;;6.18;;
52033;SDS011;38045;52.988;6.536;2023-04-06T01:33:28;7.22;;;6.53;;
52033;SDS011;38045;52.988;6.536;2023-04-06T01:35:54;7.80;;;5.97;;
52033;SDS011;38045;52.988;6.536;2023-04-06T01:38:20;11.18;;;7.22;;
52033;SDS011;38045;52.988;6.536;2023-04-06T01:40:45;8.23;;;7.38;;
52033;SDS011;38045;52.988;6.536;2023-04-06T01:43:11;6.15;;;5.50;;
52033;SDS011;38045;52.988;6.536;2023-04-06T01:45:37;6.25;;;5.75;;
52033;SDS011;38045;52.988;6.536;2023-04-06T01:48:02;7.18;;;6.53;;
52033;SDS011;38045;52.988;6.536;2023-04-06T01:50:28;6.20;;;5.03;;
52033;SDS011;38045;52.988;6.536;2023-04-06T01:52:54;6.85;;;6.22;;
52033;SDS011;38045;52.988;6.536;2023-04-06T01:55:20;9.43;;;7.22;;
52033;SDS011;38045;52.988;6.536;2023-04-06T01:57:45;7.82;;;5.93;;
52033;SDS011;38045;52.988;6.536;2023-04-06T02:00:11;6.65;;;6.00;;
52033;SDS011;38045;52.988;6.536;2023-04-06T02:02:37;7.78;;;5.32;;
52033;SDS011;38045;52.988;6.536;2023-04-06T02:05:03;8.07;;;5.72;;
52033;SDS011;38045;52.988;6.536;2023-04-06T02:07:29;6.47;;;5.88;;
52033;SDS011;38045;52.988;6.536;2023-04-06T02:09:54;6.13;;;5.13;;
52033;SDS011;38045;52.988;6.536;2023-04-06T02:12:21;7.30;;;6.50;;
52033;SDS011;38045;52.988;6.536;2023-04-06T02:14:47;6.10;;;5.10;;
52033;SDS011;38045;52.988;6.536;2023-04-06T02:17:12;9.77;;;6.68;;
52033;SDS011;38045;52.988;6.536;2023-04-06T02:19:38;8.45;;;7.13;;
52033;SDS011;38045;52.988;6.536;2023-04-06T02:22:03;8.90;;;6.93;;
52033;SDS011;38045;52.988;6.536;2023-04-06T02:24:29;8.23;;;6.03;;
52033;SDS011;38045;52.988;6.536;2023-04-06T02:26:54;6.53;;;5.55;;
52033;SDS011;38045;52.988;6.536;2023-04-06T02:29:20;6.90;;;6.20;;
52033;SDS011;38045;52.988;6.536;2023-04-06T02:31:46;6.75;;;6.05;;
52033;SDS011;38045;52.988;6.536;2023-04-06T02:34:11;8.02;;;7.28;;
52033;SDS011;38045;52.988;6.536;2023-04-06T02:36:42;9.95;;;6.90;;
52033;SDS011;38045;52.988;6.536;2023-04-06T02:39:09;6.63;;;6.00;;
52033;SDS011;38045;52.988;6.536;2023-04-06T02:41:35;6.80;;;6.30;;
52033;SDS011;38045;52.988;6.536;2023-04-06T02:44:00;6.72;;;6.15;;
52033;SDS011;38045;52.988;6.536;2023-04-06T02:46:26;7.68;;;6.85;;
52033;SDS011;38045;52.988;6.536;2023-04-06T02:48:52;9.15;;;6.30;;
52033;SDS011;38045;52.988;6.536;2023-04-06T02:51:17;8.70;;;6.85;;
52033;SDS011;38045;52.988;6.536;2023-04-06T02:53:43;9.32;;;6.95;;
52033;SDS011;38045;52.988;6.536;2023-04-06T02:56:09;5.88;;;4.82;;
52033;SDS011;38045;52.988;6.536;2023-04-06T02:58:35;8.18;;;6.53;;
52033;SDS011;38045;52.988;6.536;2023-04-06T03:01:01;7.07;;;6.28;;
52033;SDS011;38045;52.988;6.536;2023-04-06T03:03:28;7.82;;;6.72;;
52033;SDS011;38045;52.988;6.536;2023-04-06T03:05:53;6.80;;;6.20;;
52033;SDS011;38045;52.988;6.536;2023-04-06T03:08:21;7.43;;;6.40;;
52033;SDS011;38045;52.988;6.536;2023-04-06T03:10:46;7.72;;;6.95;;
52033;SDS011;38045;52.988;6.536;2023-04-06T03:13:12;8.10;;;7.20;;
52033;SDS011;38045;52.988;6.536;2023-04-06T03:15:37;8.23;;;6.65;;
52033;SDS011;38045;52.988;6.536;2023-04-06T03:18:03;7.43;;;6.72;;
52033;SDS011;38045;52.988;6.536;2023-04-06T03:20:28;6.32;;;5.75;;
52033;SDS011;38045;52.988;6.536;2023-04-06T03:22:54;10.90;;;7.35;;
52033;SDS011;38045;52.988;6.536;2023-04-06T03:25:20;9.30;;;7.50;;
52033;SDS011;38045;52.988;6.536;2023-04-06T03:27:46;11.65;;;6.65;;
52033;SDS011;38045;52.988;6.536;2023-04-06T03:30:11;12.68;;;7.53;;
52033;SDS011;38045;52.988;6.536;2023-04-06T03:32:37;10.00;;;6.85;;
52033;SDS011;38045;52.988;6.536;2023-04-06T03:35:03;7.78;;;6.97;;
52033;SDS011;38045;52.988;6.536;2023-04-06T03:37:29;8.30;;;7.47;;
52033;SDS011;38045;52.988;6.536;2023-04-06T03:39:54;7.95;;;7.03;;
52033;SDS011;38045;52.988;6.536;2023-04-06T03:42:20;8.02;;;6.40;;
52033;SDS011;38045;52.988;6.536;2023-04-06T03:44:45;8.63;;;7.68;;
52033;SDS011;38045;52.988;6.536;2023-04-06T03:47:11;8.77;;;7.28;;
52033;SDS011;38045;52.988;6.536;2023-04-06T03:49:36;8.02;;;6.57;;
52033;SDS011;38045;52.988;6.536;2023-04-06T03:52:02;8.02;;;7.28;;
52033;SDS011;38045;52.988;6.536;2023-04-06T03:54:27;14.52;;;7.13;;
52033;SDS011;38045;52.988;6.536;2023-04-06T03:56:53;9.38;;;7.25;;
52033;SDS011;38045;52.988;6.536;2023-04-06T03:59:20;8.77;;;7.53;;
52033;SDS011;38045;52.988;6.536;2023-04-06T04:01:45;8.50;;;7.13;;
52033;SDS011;38045;52.988;6.536;2023-04-06T04:04:11;7.82;;;7.13;;
52033;SDS011;38045;52.988;6.536;2023-04-06T04:06:36;11.63;;;7.15;;
52033;SDS011;38045;52.988;6.536;2023-04-06T04:09:02;16.35;;;7.88;;
52033;SDS011;38045;52.988;6.536;2023-04-06T04:11:28;7.07;;;6.38;;
52033;SDS011;38045;52.988;6.536;2023-04-06T04:13:53;8.27;;;6.28;;
52033;SDS011;38045;52.988;6.536;2023-04-06T04:16:19;9.43;;;8.25;;
52033;SDS011;38045;52.988;6.536;2023-04-06T04:18:44;14.55;;;8.88;;
52033;SDS011;38045;52.988;6.536;2023-04-06T04:21:12;8.88;;;7.53;;
52033;SDS011;38045;52.988;6.536;2023-04-06T04:23:37;12.57;;;7.28;;
52033;SDS011;38045;52.988;6.536;2023-04-06T04:26:03;10.98;;;7.70;;
52033;SDS011;38045;52.988;6.536;2023-04-06T04:28:29;7.95;;;7.15;;
52033;SDS011;38045;52.988;6.536;2023-04-06T04:30:54;12.40;;;8.45;;
52033;SDS011;38045;52.988;6.536;2023-04-06T04:33:20;10.07;;;7.57;;
52033;SDS011;38045;52.988;6.536;2023-04-06T04:35:46;12.07;;;7.30;;
52033;SDS011;38045;52.988;6.536;2023-04-06T04:38:11;9.93;;;7.90;;
52033;SDS011;38045;52.988;6.536;2023-04-06T04:40:37;8.07;;;7.30;;
52033;SDS011;38045;52.988;6.536;2023-04-06T04:43:02;9.93;;;7.85;;
52033;SDS011;38045;52.988;6.536;2023-04-06T04:45:28;8.90;;;8.00;;
52033;SDS011;38045;52.988;6.536;2023-04-06T04:47:53;12.02;;;7.45;;
52033;SDS011;38045;52.988;6.536;2023-04-06T04:50:19;8.65;;;7.72;;
52033;SDS011;38045;52.988;6.536;2023-04-06T04:52:45;9.25;;;6.95;;
52033;SDS011;38045;52.988;6.536;2023-04-06T04:55:11;8.70;;;7.80;;
52033;SDS011;38045;52.988;6.536;2023-04-06T04:57:36;12.20;;;7.85;;
52033;SDS011;38045;52.988;6.536;2023-04-06T05:00:02;11.60;;;8.40;;
52033;SDS011;38045;52.988;6.536;2023-04-06T05:02:28;9.85;;;7.30;;
52033;SDS011;38045;52.988;6.536;2023-04-06T05:04:53;9.02;;;7.63;;
52033;SDS011;38045;52.988;6.536;2023-04-06T05:07:19;12.48;;;7.97;;
52033;SDS011;38045;52.988;6.536;2023-04-06T05:09:45;8.10;;;7.20;;
52033;SDS011;38045;52.988;6.536;2023-04-06T05:12:11;10.15;;;9.15;;
52033;SDS011;38045;52.988;6.536;2023-04-06T05:14:37;11.85;;;7.85;;
52033;SDS011;38045;52.988;6.536;2023-04-06T05:17:03;9.02;;;7.82;;
52033;SDS011;38045;52.988;6.536;2023-04-06T05:19:29;10.43;;;7.35;;
52033;SDS011;38045;52.988;6.536;2023-04-06T05:21:55;10.90;;;7.82;;
52033;SDS011;38045;52.988;6.536;2023-04-06T05:24:21;11.88;;;8.63;;
52033;SDS011;38045;52.988;6.536;2023-04-06T05:26:46;9.63;;;7.43;;
52033;SDS011;38045;52.988;6.536;2023-04-06T05:29:13;9.07;;;7.85;;
52033;SDS011;38045;52.988;6.536;2023-04-06T05:31:38;10.48;;;8.30;;
52033;SDS011;38045;52.988;6.536;2023-04-06T05:34:04;12.80;;;7.70;;
52033;SDS011;38045;52.988;6.536;2023-04-06T05:36:30;9.57;;;8.10;;
52033;SDS011;38045;52.988;6.536;2023-04-06T05:38:57;12.30;;;9.02;;
52033;SDS011;38045;52.988;6.536;2023-04-06T05:41:23;17.88;;;9.38;;
52033;SDS011;38045;52.988;6.536;2023-04-06T05:43:48;13.07;;;9.25;;
52033;SDS011;38045;52.988;6.536;2023-04-06T05:46:14;8.55;;;7.50;;
52033;SDS011;38045;52.988;6.536;2023-04-06T05:48:40;9.85;;;8.80;;
52033;SDS011;38045;52.988;6.536;2023-04-06T05:51:05;10.80;;;8.32;;
52033;SDS011;38045;52.988;6.536;2023-04-06T05:53:31;10.80;;;8.57;;
52033;SDS011;38045;52.988;6.536;2023-04-06T05:56:00;9.73;;;8.48;;
52033;SDS011;38045;52.988;6.536;2023-04-06T05:58:26;9.35;;;8.43;;
52033;SDS011;38045;52.988;6.536;2023-04-06T06:01:01;10.25;;;8.40;;
52033;SDS011;38045;52.988;6.536;2023-04-06T06:03:28;11.93;;;10.02;;
52033;SDS011;38045;52.988;6.536;2023-04-06T06:05:59;17.88;;;8.80;;
52033;SDS011;38045;52.988;6.536;2023-04-06T06:08:28;12.45;;;9.77;;
52033;SDS011;38045;52.988;6.536;2023-04-06T06:10:54;11.38;;;10.15;;
52033;SDS011;38045;52.988;6.536;2023-04-06T06:13:20;12.15;;;10.25;;
52033;SDS011;38045;52.988;6.536;2023-04-06T06:15:47;10.00;;;8.57;;
52033;SDS011;38045;52.988;6.536;2023-04-06T06:18:12;11.57;;;9.50;;
52033;SDS011;38045;52.988;6.536;2023-04-06T06:20:38;13.35;;;9.63;;
52033;SDS011;38045;52.988;6.536;2023-04-06T06:23:04;10.55;;;8.55;;
52033;SDS011;38045;52.988;6.536;2023-04-06T06:25:29;11.85;;;10.45;;
52033;SDS011;38045;52.988;6.536;2023-04-06T06:27:58;9.57;;;8.57;;
52033;SDS011;38045;52.988;6.536;2023-04-06T06:30:24;10.45;;;8.25;;
52033;SDS011;38045;52.988;6.536;2023-04-06T06:32:50;9.65;;;8.07;;
52033;SDS011;38045;52.988;6.536;2023-04-06T06:35:16;11.25;;;8.32;;
52033;SDS011;38045;52.988;6.536;2023-04-06T06:37:42;9.57;;;8.23;;
52033;SDS011;38045;52.988;6.536;2023-04-06T06:40:08;12.00;;;8.18;;
52033;SDS011;38045;52.988;6.536;2023-04-06T06:42:35;10.65;;;9.63;;
52033;SDS011;38045;52.988;6.536;2023-04-06T06:45:00;9.05;;;7.82;;
52033;SDS011;38045;52.988;6.536;2023-04-06T06:47:26;10.52;;;8.25;;
52033;SDS011;38045;52.988;6.536;2023-04-06T06:49:52;10.57;;;9.15;;
52033;SDS011;38045;52.988;6.536;2023-04-06T06:52:17;9.82;;;8.88;;
52033;SDS011;38045;52.988;6.536;2023-04-06T06:54:43;12.82;;;11.52;;
52033;SDS011;38045;52.988;6.536;2023-04-06T06:57:09;10.85;;;9.55;;
52033;SDS011;38045;52.988;6.536;2023-04-06T06:59:35;11.30;;;10.00;;
52033;SDS011;38045;52.988;6.536;2023-04-06T07:02:00;11.55;;;9.30;;
52033;SDS011;38045;52.988;6.536;2023-04-06T07:04:26;11.00;;;9.82;;
52033;SDS011;38045;52.988;6.536;2023-04-06T07:06:52;12.95;;;9.85;;
52033;SDS011;38045;52.988;6.536;2023-04-06T07:09:17;12.02;;;10.40;;
52033;SDS011;38045;52.988;6.536;2023-04-06T07:11:43;10.80;;;9.25;;
52033;SDS011;38045;52.988;6.536;2023-04-06T07:14:09;11.23;;;9.45;;
52033;SDS011;38045;52.988;6.536;2023-04-06T07:16:34;17.17;;;10.68;;
52033;SDS011;38045;52.988;6.536;2023-04-06T07:19:00;10.02;;;9.00;;
52033;SDS011;38045;52.988;6.536;2023-04-06T07:21:26;10.75;;;9.45;;
52033;SDS011;38045;52.988;6.536;2023-04-06T07:23:51;9.52;;;8.50;;
52033;SDS011;38045;52.988;6.536;2023-04-06T07:26:17;14.27;;;10.20;;
52033;SDS011;38045;52.988;6.536;2023-04-06T07:28:43;9.00;;;7.97;;
52033;SDS011;38045;52.988;6.536;2023-04-06T07:31:08;18.70;;;11.13;;
52033;SDS011;38045;52.988;6.536;2023-04-06T07:33:34;10.02;;;8.75;;
52033;SDS011;38045;52.988;6.536;2023-04-06T07:35:59;11.32;;;9.60;;
52033;SDS011;38045;52.988;6.536;2023-04-06T07:38:25;12.13;;;10.35;;
52033;SDS011;38045;52.988;6.536;2023-04-06T07:40:51;9.90;;;8.80;;
52033;SDS011;38045;52.988;6.536;2023-04-06T07:43:17;11.60;;;10.23;;
52033;SDS011;38045;52.988;6.536;2023-04-06T07:45:42;13.77;;;10.52;;
52033;SDS011;38045;52.988;6.536;2023-04-06T07:48:08;13.68;;;10.05;;
52033;SDS011;38045;52.988;6.536;2023-04-06T07:50:33;13.63;;;9.93;;
52033;SDS011;38045;52.988;6.536;2023-04-06T07:52:59;16.05;;;10.50;;
52033;SDS011;38045;52.988;6.536;2023-04-06T07:55:25;12.30;;;9.27;;
52033;SDS011;38045;52.988;6.536;2023-04-06T07:57:51;13.73;;;9.48;;
52033;SDS011;38045;52.988;6.536;2023-04-06T08:00:16;13.68;;;9.00;;
52033;SDS011;38045;52.988;6.536;2023-04-06T08:02:42;12.13;;;10.20;;
52033;SDS011;38045;52.988;6.536;2023-04-06T08:05:08;13.02;;;9.13;;
52033;SDS011;38045;52.988;6.536;2023-04-06T08:07:34;14.63;;;9.52;;
52033;SDS011;38045;52.988;6.536;2023-04-06T08:10:01;16.58;;;11.07;;
52033;SDS011;38045;52.988;6.536;2023-04-06T08:12:26;11.15;;;9.20;;
52033;SDS011;38045;52.988;6.536;2023-04-06T08:14:52;12.35;;;10.55;;
52033;SDS011;38045;52.988;6.536;2023-04-06T08:17:18;13.52;;;9.23;;
52033;SDS011;38045;52.988;6.536;2023-04-06T08:19:43;16.40;;;10.93;;
52033;SDS011;38045;52.988;6.536;2023-04-06T08:22:10;11.90;;;10.05;;
52033;SDS011;38045;52.988;6.536;2023-04-06T08:24:36;11.55;;;9.48;;
52033;SDS011;38045;52.988;6.536;2023-04-06T08:27:01;15.38;;;9.20;;
52033;SDS011;38045;52.988;6.536;2023-04-06T08:29:28;15.90;;;10.27;;
52033;SDS011;38045;52.988;6.536;2023-04-06T08:31:53;12.80;;;10.18;;
52033;SDS011;38045;52.988;6.536;2023-04-06T08:34:20;14.10;;;10.10;;
52033;SDS011;38045;52.988;6.536;2023-04-06T08:36:45;14.90;;;10.45;;
52033;SDS011;38045;52.988;6.536;2023-04-06T08:39:11;18.90;;;9.35;;
52033;SDS011;38045;52.988;6.536;2023-04-06T08:41:37;11.23;;;10.07;;
52033;SDS011;38045;52.988;6.536;2023-04-06T08:44:03;12.25;;;9.55;;
52033;SDS011;38045;52.988;6.536;2023-04-06T08:46:30;11.52;;;9.05;;
52033;SDS011;38045;52.988;6.536;2023-04-06T08:48:57;12.43;;;9.05;;
52033;SDS011;38045;52.988;6.536;2023-04-06T08:51:23;17.13;;;10.15;;
52033;SDS011;38045;52.988;6.536;2023-04-06T08:53:52;11.63;;;9.05;;
52033;SDS011;38045;52.988;6.536;2023-04-06T08:56:22;13.95;;;11.38;;
52033;SDS011;38045;52.988;6.536;2023-04-06T08:58:48;17.48;;;12.35;;
52033;SDS011;38045;52.988;6.536;2023-04-06T09:01:14;12.13;;;10.15;;
52033;SDS011;38045;52.988;6.536;2023-04-06T09:03:43;15.33;;;11.53;;
52033;SDS011;38045;52.988;6.536;2023-04-06T09:06:10;8.70;;;6.43;;
52033;SDS011;38045;52.988;6.536;2023-04-06T09:08:39;16.73;;;10.40;;
52033;SDS011;38045;52.988;6.536;2023-04-06T09:11:05;14.98;;;10.10;;
52033;SDS011;38045;52.988;6.536;2023-04-06T09:13:31;10.50;;;9.27;;
52033;SDS011;38045;52.988;6.536;2023-04-06T09:16:09;10.77;;;7.90;;
52033;SDS011;38045;52.988;6.536;2023-04-06T09:18:35;16.45;;;10.90;;
52033;SDS011;38045;52.988;6.536;2023-04-06T09:21:01;7.28;;;6.47;;
52033;SDS011;38045;52.988;6.536;2023-04-06T09:23:28;10.88;;;9.75;;
52033;SDS011;38045;52.988;6.536;2023-04-06T09:26:06;18.17;;;11.75;;
52033;SDS011;38045;52.988;6.536;2023-04-06T09:31:24;14.77;;;10.95;;
52033;SDS011;38045;52.988;6.536;2023-04-06T09:33:52;20.27;;;13.88;;
52033;SDS011;38045;52.988;6.536;2023-04-06T09:36:18;19.83;;;13.88;;
52033;SDS011;38045;52.988;6.536;2023-04-06T09:38:54;14.57;;;12.63;;
52033;SDS011;38045;52.988;6.536;2023-04-06T09:41:33;21.35;;;13.90;;
52033;SDS011;38045;52.988;6.536;2023-04-06T09:44:04;15.48;;;13.05;;
52033;SDS011;38045;52.988;6.536;2023-04-06T09:46:37;17.50;;;13.57;;
52033;SDS011;38045;52.988;6.536;2023-04-06T09:49:05;16.80;;;12.50;;
52033;SDS011;38045;52.988;6.536;2023-04-06T09:51:35;21.00;;;16.00;;
52033;SDS011;38045;52.988;6.536;2023-04-06T09:54:06;22.67;;;15.43;;
52033;SDS011;38045;52.988;6.536;2023-04-06T09:56:45;20.05;;;13.95;;
52033;SDS011;38045;52.988;6.536;2023-04-06T09:59:13;18.52;;;14.35;;
52033;SDS011;38045;52.988;6.536;2023-04-06T10:01:44;22.10;;;15.05;;
52033;SDS011;38045;52.988;6.536;2023-04-06T10:04:36;24.38;;;15.60;;
52033;SDS011;38045;52.988;6.536;2023-04-06T10:07:08;20.15;;;14.98;;
52033;SDS011;38045;52.988;6.536;2023-04-06T10:09:36;22.08;;;16.58;;
52033;SDS011;38045;52.988;6.536;2023-04-06T10:12:03;24.00;;;16.27;;
52033;SDS011;38045;52.988;6.536;2023-04-06T10:14:31;19.27;;;16.17;;
52033;SDS011;38045;52.988;6.536;2023-04-06T10:17:03;25.80;;;16.65;;
52033;SDS011;38045;52.988;6.536;2023-04-06T10:22:15;17.77;;;13.85;;
52033;SDS011;38045;52.988;6.536;2023-04-06T10:24:48;22.33;;;16.85;;
52033;SDS011;38045;52.988;6.536;2023-04-06T10:27:14;23.23;;;16.85;;
52033;SDS011;38045;52.988;6.536;2023-04-06T10:29:43;21.58;;;16.52;;
52033;SDS011;38045;52.988;6.536;2023-04-06T10:32:10;19.65;;;16.05;;
52033;SDS011;38045;52.988;6.536;2023-04-06T10:34:36;18.55;;;14.52;;
52033;SDS011;38045;52.988;6.536;2023-04-06T10:37:14;23.77;;;17.92;;
52033;SDS011;38045;52.988;6.536;2023-04-06T10:39:53;24.30;;;16.45;;
52033;SDS011;38045;52.988;6.536;2023-04-06T10:42:38;23.27;;;14.38;;
52033;SDS011;38045;52.988;6.536;2023-04-06T10:45:07;20.48;;;13.70;;
52033;SDS011;38045;52.988;6.536;2023-04-06T10:47:43;23.65;;;18.08;;
52033;SDS011;38045;52.988;6.536;2023-04-06T10:50:10;27.83;;;21.08;;
52033;SDS011;38045;52.988;6.536;2023-04-06T10:52:39;24.73;;;18.52;;
52033;SDS011;38045;52.988;6.536;2023-04-06T10:55:05;25.42;;;17.50;;
52033;SDS011;38045;52.988;6.536;2023-04-06T10:57:33;22.92;;;17.92;;
52033;SDS011;38045;52.988;6.536;2023-04-06T10:59:59;24.67;;;18.95;;
52033;SDS011;38045;52.988;6.536;2023-04-06T11:02:25;24.38;;;19.48;;
52033;SDS011;38045;52.988;6.536;2023-04-06T11:04:57;29.02;;;20.83;;
52033;SDS011;38045;52.988;6.536;2023-04-06T11:07:24;27.73;;;19.15;;
52033;SDS011;38045;52.988;6.536;2023-04-06T11:09:51;23.58;;;17.55;;
52033;SDS011;38045;52.988;6.536;2023-04-06T11:12:20;28.85;;;18.92;;
52033;SDS011;38045;52.988;6.536;2023-04-06T11:14:57;28.98;;;18.75;;
52033;SDS011;38045;52.988;6.536;2023-04-06T11:17:29;25.20;;;20.45;;
52033;SDS011;38045;52.988;6.536;2023-04-06T11:19:56;21.55;;;16.35;;
52033;SDS011;38045;52.988;6.536;2023-04-06T11:22:22;17.05;;;14.23;;
52033;SDS011;38045;52.988;6.536;2023-04-06T11:24:48;26.33;;;20.95;;
52033;SDS011;38045;52.988;6.536;2023-04-06T11:27:14;26.52;;;21.42;;
52033;SDS011;38045;52.988;6.536;2023-04-06T11:29:43;26.13;;;19.50;;
52033;SDS011;38045;52.988;6.536;2023-04-06T11:32:19;29.08;;;21.52;;
52033;SDS011;38045;52.988;6.536;2023-04-06T11:34:46;35.63;;;25.58;;
52033;SDS011;38045;52.988;6.536;2023-04-06T11:37:13;31.75;;;22.52;;
52033;SDS011;38045;52.988;6.536;2023-04-06T11:39:49;35.42;;;25.02;;
52033;SDS011;38045;52.988;6.536;2023-04-06T11:42:22;30.63;;;22.85;;
52033;SDS011;38045;52.988;6.536;2023-04-06T11:44:49;22.30;;;18.08;;
52033;SDS011;38045;52.988;6.536;2023-04-06T11:47:17;32.97;;;24.58;;
52033;SDS011;38045;52.988;6.536;2023-04-06T11:49:44;33.97;;;22.80;;
52033;SDS011;38045;52.988;6.536;2023-04-06T11:52:14;31.40;;;22.92;;
52033;SDS011;38045;52.988;6.536;2023-04-06T11:54:40;33.30;;;24.73;;
52033;SDS011;38045;52.988;6.536;2023-04-06T11:57:07;34.72;;;22.23;;
52033;SDS011;38045;52.988;6.536;2023-04-06T11:59:33;31.63;;;22.63;;
52033;SDS011;38045;52.988;6.536;2023-04-06T12:02:03;27.20;;;17.52;;
52033;SDS011;38045;52.988;6.536;2023-04-06T12:04:30;36.17;;;22.85;;
52033;SDS011;38045;52.988;6.536;2023-04-06T12:06:56;28.83;;;19.65;;
52033;SDS011;38045;52.988;6.536;2023-04-06T12:09:22;36.33;;;24.63;;
52033;SDS011;38045;52.988;6.536;2023-04-06T12:11:48;31.83;;;21.73;;
52033;SDS011;38045;52.988;6.536;2023-04-06T12:14:14;30.17;;;22.67;;
52033;SDS011;38045;52.988;6.536;2023-04-06T12:16:39;27.35;;;21.42;;
52033;SDS011;38045;52.988;6.536;2023-04-06T12:19:05;24.67;;;19.25;;
52033;SDS011;38045;52.988;6.536;2023-04-06T12:21:31;22.10;;;15.98;;
52033;SDS011;38045;52.988;6.536;2023-04-06T12:24:02;36.35;;;21.95;;
52033;SDS011;38045;52.988;6.536;2023-04-06T12:26:28;35.60;;;25.38;;
52033;SDS011;38045;52.988;6.536;2023-04-06T12:28:54;31.15;;;23.40;;
52033;SDS011;38045;52.988;6.536;2023-04-06T12:31:21;31.10;;;21.50;;
52033;SDS011;38045;52.988;6.536;2023-04-06T12:33:48;26.77;;;20.50;;
52033;SDS011;38045;52.988;6.536;2023-04-06T12:36:15;28.90;;;20.90;;
52033;SDS011;38045;52.988;6.536;2023-04-06T12:38:43;29.95;;;22.58;;
52033;SDS011;38045;52.988;6.536;2023-04-06T12:41:12;31.17;;;19.38;;
52033;SDS011;38045;52.988;6.536;2023-04-06T12:43:39;26.73;;;21.70;;
52033;SDS011;38045;52.988;6.536;2023-04-06T12:46:05;30.98;;;21.63;;
52033;SDS011;38045;52.988;6.536;2023-04-06T12:48:31;30.10;;;24.25;;
52033;SDS011;38045;52.988;6.536;2023-04-06T12:50:57;26.90;;;21.35;;
52033;SDS011;38045;52.988;6.536;2023-04-06T12:53:24;27.55;;;21.25;;
52033;SDS011;38045;52.988;6.536;2023-04-06T12:55:51;27.38;;;21.92;;
52033;SDS011;38045;52.988;6.536;2023-04-06T12:58:18;29.38;;;24.02;;
52033;SDS011;38045;52.988;6.536;2023-04-06T13:00:44;27.90;;;21.20;;
52033;SDS011;38045;52.988;6.536;2023-04-06T13:03:10;26.52;;;21.30;;
52033;SDS011;38045;52.988;6.536;2023-04-06T13:05:36;24.58;;;18.02;;
52033;SDS011;38045;52.988;6.536;2023-04-06T13:08:08;23.42;;;16.35;;
52033;SDS011;38045;52.988;6.536;2023-04-06T13:10:33;20.58;;;16.80;;
52033;SDS011;38045;52.988;6.536;2023-04-06T13:12:59;23.42;;;18.25;;
52033;SDS011;38045;52.988;6.536;2023-04-06T13:15:25;28.05;;;19.58;;
52033;SDS011;38045;52.988;6.536;2023-04-06T13:17:50;26.40;;;19.33;;
52033;SDS011;38045;52.988;6.536;2023-04-06T13:20:16;24.45;;;18.70;;
52033;SDS011;38045;52.988;6.536;2023-04-06T13:22:42;20.58;;;13.07;;
52033;SDS011;38045;52.988;6.536;2023-04-06T13:25:07;21.75;;;14.73;;
52033;SDS011;38045;52.988;6.536;2023-04-06T13:27:33;19.10;;;13.35;;
52033;SDS011;38045;52.988;6.536;2023-04-06T13:30:00;20.77;;;13.60;;
52033;SDS011;38045;52.988;6.536;2023-04-06T13:32:26;15.00;;;12.38;;
52033;SDS011;38045;52.988;6.536;2023-04-06T13:34:54;16.40;;;12.45;;
52033;SDS011;38045;52.988;6.536;2023-04-06T13:37:20;19.83;;;16.27;;
52033;SDS011;38045;52.988;6.536;2023-04-06T13:39:46;24.98;;;17.20;;
52033;SDS011;38045;52.988;6.536;2023-04-06T13:42:11;16.70;;;12.40;;
52033;SDS011;38045;52.988;6.536;2023-04-06T13:44:37;17.85;;;14.48;;
52033;SDS011;38045;52.988;6.536;2023-04-06T13:47:02;22.45;;;15.27;;
52033;SDS011;38045;52.988;6.536;2023-04-06T13:49:28;18.30;;;15.15;;
52033;SDS011;38045;52.988;6.536;2023-04-06T13:51:53;21.65;;;9.98;;
52033;SDS011;38045;52.988;6.536;2023-04-06T13:54:19;16.08;;;12.20;;
52033;SDS011;38045;52.988;6.536;2023-04-06T13:56:45;19.95;;;13.70;;
52033;SDS011;38045;52.988;6.536;2023-04-06T13:59:10;18.63;;;10.48;;
52033;SDS011;38045;52.988;6.536;2023-04-06T14:01:36;15.80;;;10.70;;
52033;SDS011;38045;52.988;6.536;2023-04-06T14:04:02;21.52;;;13.82;;
52033;SDS011;38045;52.988;6.536;2023-04-06T14:06:28;18.25;;;13.88;;
52033;SDS011;38045;52.988;6.536;2023-04-06T14:08:53;14.77;;;10.05;;
52033;SDS011;38045;52.988;6.536;2023-04-06T14:11:19;17.15;;;11.55;;
52033;SDS011;38045;52.988;6.536;2023-04-06T14:13:45;9.75;;;7.38;;
52033;SDS011;38045;52.988;6.536;2023-04-06T14:16:11;13.93;;;11.00;;
52033;SDS011;38045;52.988;6.536;2023-04-06T14:18:37;12.55;;;10.90;;
52033;SDS011;38045;52.988;6.536;2023-04-06T14:21:03;12.57;;;9.23;;
52033;SDS011;38045;52.988;6.536;2023-04-06T14:23:28;14.98;;;11.82;;
52033;SDS011;38045;52.988;6.536;2023-04-06T14:26:03;13.00;;;9.48;;
52033;SDS011;38045;52.988;6.536;2023-04-06T14:28:30;17.75;;;10.70;;
52033;SDS011;38045;52.988;6.536;2023-04-06T14:31:01;14.90;;;12.25;;
52033;SDS011;38045;52.988;6.536;2023-04-06T14:33:28;13.73;;;10.93;;
52033;SDS011;38045;52.988;6.536;2023-04-06T14:35:55;12.98;;;9.20;;
52033;SDS011;38045;52.988;6.536;2023-04-06T14:38:21;13.43;;;10.57;;
52033;SDS011;38045;52.988;6.536;2023-04-06T14:40:47;17.92;;;15.05;;